Time;durP1;ratioP1;P1;durP2;ratioP2;P2;SDS_P1;SDS_P2;PMS_P1;PMS_P2;Temp;Humidity;BMP_temperature;BMP_pressure;BME280_temperature;BME280_humidity;BME280_pressure;Samples;Min_cycle;Max_cycle;Signal;HPM_P1;HPM_P2
2021/09/06 00:02:07;;;;;;;;;14.25;14.00;;;;;25.78;45.45;101337.50;5078395;28;46279;-85
2021/09/06 00:04:33;;;;;;;;;15.25;13.50;;;;;25.74;45.21;101334.38;5081099;28;45630;-83
2021/09/06 00:06:59;;;;;;;;;14.75;13.50;;;;;25.72;45.25;101333.72;5082210;28;45711;-80
2021/09/06 00:09:25;;;;;;;;;13.00;12.25;;;;;25.72;45.23;101332.88;5081826;28;46649;-81
2021/09/06 00:11:50;;;;;;;;;14.50;14.25;;;;;25.69;45.19;101331.41;5080350;28;45656;-86
2021/09/06 00:14:17;;;;;;;;;12.75;12.25;;;;;25.68;45.30;101329.75;5082591;28;45490;-81
2021/09/06 00:16:42;;;;;;;;;15.00;14.00;;;;;25.66;45.13;101329.09;5083910;28;45494;-80
2021/09/06 00:19:07;;;;;;;;;14.00;13.75;;;;;25.64;44.99;101333.81;5083316;28;46597;-79
2021/09/06 00:21:33;;;;;;;;;14.50;13.75;;;;;25.58;45.11;101323.88;5078750;28;45655;-80
2021/09/06 00:27:20;;;;;;;;;15.25;13.50;;;;;25.60;45.32;101329.03;5075982;28;45505;-81
2021/09/06 00:29:45;;;;;;;;;14.25;13.00;;;;;25.56;45.54;101333.94;5076207;28;46686;-82
2021/09/06 00:32:10;;;;;;;;;12.50;12.25;;;;;25.56;45.44;101333.94;5075555;28;46072;-79
2021/09/06 00:34:36;;;;;;;;;14.00;14.00;;;;;25.55;45.41;101342.16;5076499;28;45496;-79
2021/09/06 00:37:02;;;;;;;;;17.75;14.75;;;;;25.40;45.38;101315.34;5076855;28;45474;-80
2021/09/06 00:39:27;;;;;;;;;13.00;12.75;;;;;25.49;45.62;101333.81;5076471;28;47192;-81
2021/09/06 00:41:52;;;;;;;;;13.25;12.75;;;;;25.36;45.25;101312.22;5076254;28;45933;-84
2021/09/06 00:44:18;;;;;;;;;16.00;14.00;;;;;25.46;45.34;101330.69;5076218;28;45766;-83
2021/09/06 00:46:45;;;;;;;;;15.75;14.00;;;;;25.41;45.28;101328.59;5076468;28;45627;-82
2021/09/06 00:49:11;;;;;;;;;15.50;14.00;;;;;25.43;45.29;101334.56;5076093;28;46778;-83
2021/09/06 00:51:37;;;;;;;;;12.25;12.00;;;;;25.41;44.93;101336.63;5075885;28;45582;-80
2021/09/06 00:57:24;;;;;;;;;13.00;11.50;;;;;25.38;45.28;101342.34;5077205;28;45747;-83
2021/09/06 00:59:49;;;;;;;;;16.00;16.00;;;;;25.32;45.26;101329.69;5076189;28;46299;-80
2021/09/06 01:02:14;;;;;;;;;15.50;15.50;;;;;25.37;45.43;101345.25;5075487;28;46173;-79
2021/09/06 01:04:40;;;;;;;;;15.25;15.00;;;;;25.35;45.47;101340.06;5077545;28;45549;-81
2021/09/06 01:07:06;;;;;;;;;13.00;12.25;;;;;25.34;45.58;101340.25;5078194;28;45831;-79
2021/09/06 01:09:31;;;;;;;;;16.50;15.00;;;;;25.32;45.35;101339.59;5077769;28;45675;-83
2021/09/06 01:11:56;;;;;;;;;13.00;12.00;;;;;25.23;45.30;101327.31;5076295;28;46229;-81
2021/09/06 01:14:22;;;;;;;;;9.25;9.25;;;;;25.28;45.12;101336.47;5077337;28;45517;-83
2021/09/06 01:16:48;;;;;;;;;14.75;14.00;;;;;25.28;45.57;101338.31;5078131;28;45810;-84
2021/09/06 01:19:14;;;;;;;;;15.25;14.00;;;;;25.26;45.46;101335.84;5077468;28;45520;-83
2021/09/06 01:21:39;;;;;;;;;14.50;13.25;;;;;25.25;45.49;101327.97;5076384;28;46255;-81
2021/09/06 01:27:26;;;;;;;;;12.75;12.75;;;;;25.14;45.10;101318.53;5080746;28;45641;-84
2021/09/06 01:29:53;;;;;;;;;12.50;11.75;;;;;25.19;45.36;101328.72;5080200;28;45614;-82
2021/09/06 01:32:18;;;;;;;;;16.50;14.50;;;;;25.11;45.58;101323.44;5082736;28;46179;-84
2021/09/06 01:34:44;;;;;;;;;14.25;13.25;;;;;25.21;45.62;101335.53;5083196;28;45576;-86
2021/09/06 01:37:09;;;;;;;;;14.25;13.25;;;;;25.09;45.68;101315.59;5083658;28;45478;-84
2021/09/06 01:39:35;;;;;;;;;14.25;13.25;;;;;25.20;45.70;101333.88;5076918;28;45512;-80
2021/09/06 01:42:00;;;;;;;;;15.00;15.00;;;;;25.09;45.38;101310.22;5075233;28;46226;-80
2021/09/06 01:44:26;;;;;;;;;13.00;12.25;;;;;25.12;45.38;101322.41;5074920;28;45521;-82
2021/09/06 01:46:51;;;;;;;;;14.00;12.75;;;;;25.18;45.46;101340.44;5075484;28;45510;-82
2021/09/06 01:49:17;;;;;;;;;15.25;14.00;;;;;25.12;45.58;101333.13;5075278;28;45705;-86
2021/09/06 01:51:42;;;;;;;;;14.75;13.25;;;;;25.16;45.58;101351.34;5075055;28;46200;-81
2021/09/06 01:57:30;;;;;;;;;14.00;14.00;;;;;25.12;45.59;101342.03;5075147;28;45516;-81
2021/09/06 01:59:55;;;;;;;;;13.50;13.00;;;;;25.01;45.64;101329.91;5075075;28;45484;-80
2021/09/06 02:02:21;;;;;;;;;13.25;12.75;;;;;25.08;45.62;101349.63;5074678;28;45594;-81
2021/09/06 02:04:47;;;;;;;;;15.25;14.00;;;;;25.02;45.88;101338.78;5074454;28;45495;-81
2021/09/06 02:07:12;;;;;;;;;15.75;14.75;;;;;25.00;45.71;101335.44;5074872;28;45687;-84
2021/09/06 02:09:38;;;;;;;;;13.75;13.50;;;;;24.84;45.79;101306.09;5074476;28;46856;-84
2021/09/06 02:12:03;;;;;;;;;16.00;14.75;;;;;25.06;45.62;101345.44;5056033;28;47142;-81
2021/09/06 02:14:29;;;;;;;;;17.00;16.25;;;;;25.05;45.89;101341.94;5074406;28;45639;-79
2021/09/06 02:16:54;;;;;;;;;16.25;15.50;;;;;25.03;45.90;101341.28;5075052;28;45993;-80
2021/09/06 02:19:19;;;;;;;;;18.00;16.25;;;;;24.98;45.86;101334.81;5074538;28;45636;-80
2021/09/06 02:21:46;;;;;;;;;16.50;16.25;;;;;25.00;46.09;101335.44;5074620;28;46353;-80
2021/09/06 02:27:33;;;;;;;;;17.00;15.75;;;;;24.98;46.31;101349.06;5082994;28;45695;-81
2021/09/06 02:29:59;;;;;;;;;17.00;15.50;;;;;24.93;46.35;101334.56;5082292;28;46659;-80
2021/09/06 02:32:24;;;;;;;;;16.50;15.50;;;;;24.96;46.33;101350.25;5062984;28;47161;-84
2021/09/06 02:34:49;;;;;;;;;14.75;12.75;;;;;24.94;46.42;101350.44;5082171;28;45258;-85
2021/09/06 02:37:15;;;;;;;;;19.00;17.25;;;;;24.89;46.34;101339.44;5082066;28;45564;-81
2021/09/06 02:43:03;;;;;;;;;15.00;13.50;;;;;24.88;46.25;101353.03;5081430;28;45577;-80
2021/09/06 02:45:28;;;;;;;;;14.00;13.25;;;;;24.87;46.35;101354.84;5085126;28;45395;-80
2021/09/06 02:47:54;;;;;;;;;14.75;14.75;;;;;24.73;45.97;101341.41;5085662;28;45345;-83
2021/09/06 02:50:19;;;;;;;;;15.00;14.00;;;;;24.82;46.13;101353.75;5087320;28;45755;-82
2021/09/06 02:52:44;;;;;;;;;14.00;14.00;;;;;24.64;46.05;101324.59;5087843;28;45623;-81
2021/09/06 02:55:10;;;;;;;;;13.25;13.00;;;;;24.68;45.91;101341.97;5088299;28;45743;-79
2021/09/06 02:57:36;;;;;;;;;14.25;13.25;;;;;24.72;46.09;101353.19;5087484;28;45490;-80
2021/09/06 03:00:01;;;;;;;;;15.00;15.00;;;;;24.74;45.95;101365.38;5085910;28;46913;-85
2021/09/06 03:02:28;;;;;;;;;16.00;14.50;;;;;24.70;45.93;101360.56;5080582;28;45540;-84
2021/09/06 03:04:54;;;;;;;;;17.00;16.00;;;;;24.70;46.28;101364.06;5079948;28;45772;-85
2021/09/06 03:07:19;;;;;;;;;16.25;15.00;;;;;24.65;46.01;101358.44;5079468;28;45708;-84
2021/09/06 03:13:07;;;;;;;;;15.00;14.00;;;;;24.63;46.45;101355.91;5077812;28;45766;-82
2021/09/06 03:15:32;;;;;;;;;15.00;14.00;;;;;24.63;45.93;101365.81;5078637;28;45580;-84
2021/09/06 03:17:58;;;;;;;;;15.75;15.50;;;;;24.61;46.38;101362.50;5078764;28;45679;-85
2021/09/06 03:20:23;;;;;;;;;18.50;18.00;;;;;24.53;46.07;101350.00;5059030;28;46500;-85
2021/09/06 03:22:48;;;;;;;;;17.50;16.00;;;;;24.57;46.06;101356.66;5077390;28;46046;-83
2021/09/06 03:25:14;;;;;;;;;17.50;15.50;;;;;24.54;46.37;101345.47;5078200;28;45601;-83
2021/09/06 03:27:39;;;;;;;;;14.25;13.00;;;;;24.43;46.22;101338.69;5078732;28;45441;-84
2021/09/06 03:30:07;;;;;;;;;17.75;17.25;;;;;24.47;46.69;101349.88;5078662;28;46400;-80
2021/09/06 03:32:32;;;;;;;;;20.75;16.50;;;;;24.47;46.99;101355.25;5078578;28;45937;-89
2021/09/06 03:34:57;;;;;;;;;18.75;16.75;;;;;24.32;46.64;101341.81;5078066;28;45638;-88
2021/09/06 03:37:23;;;;;;;;;19.75;17.25;;;;;24.40;47.09;101357.00;5077463;28;45561;-84
2021/09/06 03:43:10;;;;;;;;;21.00;18.25;;;;;24.30;47.20;101356.38;5078049;28;45587;-83
2021/09/06 03:45:35;;;;;;;;;19.00;18.25;;;;;24.31;47.37;101360.72;5078563;28;45554;-82
2021/09/06 03:48:01;;;;;;;;;18.75;18.00;;;;;24.16;47.63;101342.75;5077801;28;45817;-80
2021/09/06 03:50:27;;;;;;;;;19.25;17.25;;;;;24.26;47.54;101361.28;5078785;28;45603;-85
2021/09/06 03:52:52;;;;;;;;;20.25;18.75;;;;;24.25;47.68;101359.59;5078555;28;45611;-85
2021/09/06 03:55:18;;;;;;;;;22.00;19.50;;;;;24.24;47.68;101357.94;5081716;28;46010;-81
2021/09/06 03:57:44;;;;;;;;;18.25;18.00;;;;;24.14;47.93;101342.09;5079416;28;45564;-82
2021/09/06 04:00:10;;;;;;;;;20.50;18.25;;;;;24.11;47.58;101336.25;5078513;28;46523;-80
2021/09/06 04:02:35;;;;;;;;;19.00;18.25;;;;;24.23;48.06;101356.28;5079439;28;47334;-79
2021/09/06 04:05:00;;;;;;;;;18.00;17.25;;;;;24.23;48.05;101353.63;5082890;28;45580;-80
2021/09/06 04:07:26;;;;;;;;;19.00;18.25;;;;;24.22;48.10;101349.28;5081758;28;45604;-81
2021/09/06 04:13:13;;;;;;;;;20.00;18.50;;;;;24.14;48.59;101358.16;5082414;28;45645;-79
2021/09/06 04:15:39;;;;;;;;;20.50;18.50;;;;;24.12;49.38;101364.72;5084050;28;45556;-83
2021/09/06 04:18:04;;;;;;;;;19.25;18.25;;;;;24.08;49.28;101355.34;5083169;28;45581;-83
2021/09/06 04:20:29;;;;;;;;;21.50;21.50;;;;;24.03;48.89;101361.25;5062146;28;48479;-84
2021/09/06 04:22:55;;;;;;;;;20.75;19.25;;;;;23.92;49.25;101353.63;5079025;28;47021;-83
2021/09/06 04:25:20;;;;;;;;;19.75;18.25;;;;;23.95;49.78;101355.97;5078938;28;45600;-83
2021/09/06 04:27:46;;;;;;;;;18.75;18.75;;;;;23.92;49.69;101350.09;5077549;28;45646;-82
2021/09/06 04:30:12;;;;;;;;;20.75;20.25;;;;;23.92;50.02;101358.97;5077495;28;46562;-85
2021/09/06 04:32:37;;;;;;;;;22.25;18.25;;;;;23.86;49.72;101350.84;5077322;28;45617;-81
2021/09/06 04:35:03;;;;;;;;;18.25;17.25;;;;;23.88;50.19;101354.16;5076709;28;45652;-82
2021/09/06 04:37:29;;;;;;;;;19.75;18.00;;;;;23.83;50.27;101349.34;5077359;28;45680;-83
2021/09/06 04:43:16;;;;;;;;;20.25;19.50;;;;;23.91;49.90;101376.06;5076622;28;46228;-85
2021/09/06 04:45:41;;;;;;;;;19.50;19.25;;;;;23.88;50.08;101378.25;5077123;28;45575;-84
2021/09/06 04:48:07;;;;;;;;;17.50;17.50;;;;;23.87;50.74;101377.41;5076592;28;45552;-82
2021/09/06 04:50:33;;;;;;;;;19.25;17.50;;;;;23.89;50.92;101379.94;5076563;28;47315;-88
2021/09/06 04:52:58;;;;;;;;;21.25;20.25;;;;;23.79;50.58;101372.13;5078159;28;45387;-85
2021/09/06 04:58:45;;;;;;;;;18.50;17.25;;;;;23.75;50.80;101376.16;5080649;28;45637;-87
2021/09/06 05:01:11;;;;;;;;;21.00;18.25;;;;;23.76;50.41;101384.00;5079307;28;46538;-87
2021/09/06 05:03:36;;;;;;;;;19.75;18.00;;;;;23.78;50.52;101397.22;5079709;28;45666;-80
2021/09/06 05:06:01;;;;;;;;;21.50;21.00;;;;;23.76;50.83;101394.72;5061502;28;45955;-79
2021/09/06 05:08:27;;;;;;;;;21.00;19.25;;;;;23.72;51.10;101393.41;5080595;28;45731;-82
2021/09/06 05:10:55;;;;;;;;;18.00;17.00;;;;;23.74;50.85;101401.25;5079715;28;46316;-79
2021/09/06 05:13:22;;;;;;;;;19.75;19.50;;;;;23.71;50.59;101393.56;5078567;28;45481;-81
2021/09/06 05:15:47;;;;;;;;;22.25;21.50;;;;;23.66;50.86;101398.59;5080042;28;45698;-84
2021/09/06 05:18:13;;;;;;;;;19.25;16.75;;;;;23.66;50.26;101402.13;5080278;28;45503;-84
2021/09/06 05:20:39;;;;;;;;;18.00;17.25;;;;;23.60;50.78;101402.81;5077190;28;45713;-80
2021/09/06 05:23:05;;;;;;;;;21.00;19.25;;;;;23.52;50.10;101394.00;5077094;28;45361;-82
2021/09/06 05:28:52;;;;;;;;;21.50;20.25;;;;;23.52;49.94;101421.59;5080009;28;45599;-82
2021/09/06 05:31:18;;;;;;;;;19.50;18.50;;;;;23.42;50.29;101413.75;5079354;28;46411;-83
2021/09/06 05:33:43;;;;;;;;;20.50;18.25;;;;;23.47;50.17;101423.13;5079246;28;46156;-82
2021/09/06 05:36:12;;;;;;;;;21.00;20.50;;;;;23.45;50.37;101423.25;5082044;28;45562;-80
2021/09/06 05:38:38;;;;;;;;;19.25;18.25;;;;;23.39;50.76;101429.28;5083148;28;45703;-80
2021/09/06 05:41:03;;;;;;;;;19.50;17.50;;;;;23.41;50.86;101437.97;5064638;28;47346;-84
2021/09/06 05:43:28;;;;;;;;;19.50;17.75;;;;;23.40;49.97;101439.81;5080973;28;45497;-87
2021/09/06 05:45:54;;;;;;;;;17.00;16.00;;;;;23.36;50.67;101446.53;5076964;28;45517;-85
2021/09/06 05:48:19;;;;;;;;;21.50;20.25;;;;;23.37;50.32;101442.03;5077281;28;45463;-80
2021/09/06 05:50:44;;;;;;;;;19.50;18.50;;;;;23.41;50.22;101449.53;5076355;28;46487;-80
2021/09/06 05:53:11;;;;;;;;;17.75;16.50;;;;;23.25;50.20;101428.16;5075231;28;45808;-82
2021/09/06 05:59:02;;;;;;;;;23.00;22.25;;;;;23.36;50.42;101451.88;5082081;28;45499;-91
2021/09/06 06:01:27;;;;;;;;;23.75;19.75;;;;;23.41;49.96;101459.38;5084779;28;45676;-90
2021/09/06 06:03:53;;;;;;;;;22.50;22.00;;;;;23.42;50.03;101461.06;5080719;28;45542;-88
2021/09/06 06:06:20;;;;;;;;;23.00;20.75;;;;;23.41;50.02;101460.22;5080742;28;45675;-90
2021/09/06 06:08:45;;;;;;;;;23.25;21.50;;;;;23.32;50.20;101447.84;5079556;28;45611;-88
2021/09/06 06:11:11;;;;;;;;;20.00;19.25;;;;;23.36;50.07;101459.91;5079892;28;45686;-87
2021/09/06 06:13:36;;;;;;;;;18.50;18.50;;;;;23.35;50.29;101460.06;5080151;28;45826;-80
2021/09/06 06:16:01;;;;;;;;;29.50;28.00;;;;;23.25;50.34;101446.91;5077993;28;45636;-79
2021/09/06 06:18:27;;;;;;;;;19.50;18.25;;;;;23.29;50.30;101458.91;5077883;28;45655;-80
2021/09/06 06:20:55;;;;;;;;;21.00;20.25;;;;;23.13;50.48;101428.69;5078003;28;45571;-79
2021/09/06 06:23:20;;;;;;;;;22.50;20.75;;;;;23.25;50.29;101454.91;5059181;28;48313;-79
2021/09/06 06:25:46;;;;;;;;;20.25;18.50;;;;;23.18;50.63;101443.22;5058978;28;45526;-79
2021/09/06 06:28:11;;;;;;;;;20.00;18.00;;;;;23.36;50.34;101467.09;5078034;28;45516;-79
2021/09/06 06:30:36;;;;;;;;;24.75;22.75;;;;;23.47;50.45;101479.31;5077843;28;45724;-80
2021/09/06 06:33:03;;;;;;;;;24.25;22.25;;;;;23.49;50.70;101488.81;5077134;28;45664;-80
2021/09/06 06:35:28;;;;;;;;;24.25;21.00;;;;;23.44;50.20;101475.06;5077319;28;45627;-80
2021/09/06 06:37:54;;;;;;;;;20.75;19.00;;;;;23.47;49.99;101477.47;5077509;28;45720;-79
2021/09/06 06:40:19;;;;;;;;;23.00;20.50;;;;;23.53;50.59;101484.81;5077070;28;46334;-80
2021/09/06 06:42:44;;;;;;;;;22.00;21.25;;;;;23.55;50.42;101488.13;5077070;28;46006;-80
2021/09/06 06:45:10;;;;;;;;;19.00;17.75;;;;;23.56;50.08;101486.28;5077318;28;45548;-79
2021/09/06 06:47:36;;;;;;;;;21.75;21.00;;;;;23.56;50.54;101487.13;5077090;28;45687;-77
2021/09/06 06:50:02;;;;;;;;;18.75;17.75;;;;;23.58;50.22;101485.13;5076787;28;47322;-79
2021/09/06 06:52:28;;;;;;;;;20.75;19.00;;;;;23.60;50.44;101479.56;5076748;28;46491;-80
2021/09/06 06:54:53;;;;;;;;;23.50;20.50;;;;;23.63;49.94;101476.56;5077280;28;45463;-80
2021/09/06 06:57:19;;;;;;;;;25.75;21.50;;;;;23.59;50.27;101480.59;5059589;28;45838;-84
2021/09/06 06:59:44;;;;;;;;;23.00;17.50;;;;;23.68;50.45;101487.59;5080022;28;45592;-83
2021/09/06 07:02:10;;;;;;;;;23.00;20.75;;;;;23.61;50.67;101475.91;5082636;28;45513;-84
2021/09/06 07:04:35;;;;;;;;;22.75;20.75;;;;;23.61;50.09;101479.41;5065061;28;45601;-82
2021/09/06 07:07:00;;;;;;;;;22.25;20.75;;;;;23.70;50.26;101483.72;5081959;28;45542;-83
2021/09/06 07:09:26;;;;;;;;;24.25;21.00;;;;;23.77;49.99;101494.56;5077341;28;45614;-82
2021/09/06 07:11:51;;;;;;;;;19.25;18.25;;;;;23.70;49.72;101480.19;5076192;28;45985;-83
2021/09/06 07:14:17;;;;;;;;;18.25;17.75;;;;;23.81;50.06;101499.41;5076817;28;45844;-84
2021/09/06 07:16:42;;;;;;;;;23.75;21.50;;;;;23.84;50.55;101496.41;5077392;28;45580;-83
2021/09/06 07:19:07;;;;;;;;;22.00;20.75;;;;;23.83;50.43;101491.22;5058766;28;46983;-81
2021/09/06 07:21:33;;;;;;;;;21.25;19.25;;;;;23.91;49.81;101503.72;5076737;28;45991;-84
2021/09/06 07:23:58;;;;;;;;;21.00;19.00;;;;;23.70;49.69;101469.50;5076809;28;45643;-82
2021/09/06 07:29:45;;;;;;;;;19.00;18.50;;;;;23.97;49.54;101508.41;5076218;28;45472;-84
2021/09/06 07:32:11;;;;;;;;;22.50;18.75;;;;;24.00;49.98;101511.56;5059438;28;48556;-84
2021/09/06 07:34:36;;;;;;;;;22.75;22.00;;;;;23.95;49.46;101505.88;5081472;28;45616;-81
2021/09/06 07:37:03;;;;;;;;;21.50;19.50;;;;;24.03;49.87;101513.88;5081772;28;45647;-81
2021/09/06 07:39:29;;;;;;;;;22.25;20.25;;;;;24.04;49.87;101515.53;5081486;28;45509;-83
2021/09/06 07:41:54;;;;;;;;;22.00;19.25;;;;;23.90;49.32;101477.97;5060787;28;47457;-83
2021/09/06 07:44:20;;;;;;;;;19.75;19.00;;;;;24.03;49.36;101499.63;5079547;28;45539;-81
2021/09/06 07:46:45;;;;;;;;;16.25;15.00;;;;;24.14;49.20;101521.50;5079292;28;45855;-83
2021/09/06 07:49:10;;;;;;;;;15.00;15.00;;;;;24.19;49.10;101523.69;5077644;28;46398;-83
2021/09/06 07:51:36;;;;;;;;;17.00;16.50;;;;;24.20;48.99;101528.88;5078237;28;45682;-82
2021/09/06 07:54:02;;;;;;;;;19.75;18.25;;;;;24.21;48.99;101527.03;5077965;28;45669;-84
2021/09/06 07:59:49;;;;;;;;;14.75;14.50;;;;;24.19;48.34;101523.69;5076073;28;45781;-82
2021/09/06 08:02:14;;;;;;;;;15.00;14.50;;;;;24.23;48.38;101528.56;5076499;28;45630;-85
2021/09/06 08:04:40;;;;;;;;;18.75;17.00;;;;;24.27;48.25;101530.88;5076208;28;45687;-83
2021/09/06 08:07:05;;;;;;;;;19.25;16.50;;;;;24.33;48.04;101532.84;5076303;28;45643;-79
2021/09/06 08:09:31;;;;;;;;;17.50;15.50;;;;;24.36;48.17;101538.69;5076078;28;46597;-82
2021/09/06 08:11:56;;;;;;;;;17.00;17.00;;;;;24.24;47.80;101514.13;5076283;28;46309;-83
2021/09/06 08:14:24;;;;;;;;;17.50;16.00;;;;;24.27;48.07;101522.81;5075841;28;45525;-83
2021/09/06 08:16:49;;;;;;;;;17.50;15.50;;;;;24.46;47.71;101541.97;5076754;28;45527;-83
2021/09/06 08:19:15;;;;;;;;;15.75;15.00;;;;;24.50;47.38;101548.66;5076215;28;45528;-82
2021/09/06 08:21:41;;;;;;;;;18.50;18.25;;;;;24.49;47.30;101548.81;5076156;28;45495;-81
2021/09/06 08:24:06;;;;;;;;;17.75;15.75;;;;;24.57;47.47;101552.28;5079344;28;45730;-82
2021/09/06 08:29:53;;;;;;;;;16.00;15.00;;;;;24.62;47.22;101546.38;5078230;28;45631;-82
2021/09/06 08:32:19;;;;;;;;;18.75;17.00;;;;;24.55;47.46;101524.00;5075867;28;45927;-80
2021/09/06 08:34:44;;;;;;;;;19.25;16.50;;;;;24.64;47.19;101537.16;5057797;28;45631;-83
2021/09/06 08:37:10;;;;;;;;;22.50;20.50;;;;;24.68;47.06;101533.09;5076601;28;45509;-86
2021/09/06 08:39:37;;;;;;;;;17.75;17.00;;;;;24.70;47.12;101538.31;5075943;28;46527;-80
2021/09/06 08:42:03;;;;;;;;;18.75;17.25;;;;;24.75;47.03;101532.41;5075343;28;46209;-83
2021/09/06 08:44:28;;;;;;;;;16.50;14.50;;;;;24.72;46.99;101528.25;5075828;28;45722;-82
2021/09/06 08:46:55;;;;;;;;;18.50;16.00;;;;;24.87;47.11;101542.53;5075742;28;45717;-83
2021/09/06 08:49:21;;;;;;;;;15.50;15.00;;;;;24.92;47.11;101544.72;5076086;28;45652;-82
2021/09/06 08:51:47;;;;;;;;;18.50;16.00;;;;;24.95;46.39;101541.66;5075756;28;45562;-82
2021/09/06 08:54:12;;;;;;;;;19.25;16.25;;;;;24.97;46.75;101540.47;5075774;28;45581;-82
2021/09/06 09:00:04;;;;;;;;;15.75;14.75;;;;;25.08;46.61;101548.09;5075097;28;45551;-79
2021/09/06 09:02:33;;;;;;;;;16.00;15.25;;;;;25.12;46.48;101553.09;5075342;28;46047;-83
2021/09/06 09:05:03;;;;;;;;;16.75;15.75;;;;;25.16;46.27;101549.84;5075071;28;45674;-85
2021/09/06 09:07:30;;;;;;;;;16.00;14.75;;;;;25.19;46.23;101544.16;5076510;28;45822;-81
2021/09/06 09:09:56;;;;;;;;;18.75;17.00;;;;;25.27;46.11;101543.22;5075532;28;46276;-84
2021/09/06 09:12:23;;;;;;;;;18.25;17.25;;;;;25.32;46.17;101546.19;5078081;28;45555;-84
2021/09/06 09:15:00;;;;;;;;;16.50;16.00;;;;;25.35;46.06;101540.47;5078208;28;45684;-82
2021/09/06 09:17:27;;;;;;;;;17.00;16.25;;;;;25.23;46.10;101517.78;5078838;28;45647;-84
2021/09/06 09:19:54;;;;;;;;;16.75;16.75;;;;;25.44;45.86;101537.53;5079869;28;46274;-81
2021/09/06 09:22:29;;;;;;;;;17.50;15.00;;;;;25.49;45.90;101539.66;5063515;28;46432;-80
2021/09/06 09:24:59;;;;;;;;;16.00;15.25;;;;;25.53;45.75;101542.81;5081782;28;45503;-82
2021/09/06 09:27:38;;;;;;;;;18.25;16.75;;;;;25.59;45.85;101539.44;5081159;28;45790;-81
2021/09/06 09:30:06;;;;;;;;;13.50;13.25;;;;;25.59;45.59;101545.59;5077103;28;46821;-81
2021/09/06 09:32:33;;;;;;;;;15.00;14.00;;;;;25.70;45.77;101547.00;5075292;28;46344;-84
2021/09/06 09:35:05;;;;;;;;;15.50;14.75;;;;;25.74;45.31;101549.16;5076031;28;45691;-82
2021/09/06 09:37:32;;;;;;;;;12.00;10.50;;;;;25.73;45.55;101539.44;5060121;28;45601;-80
2021/09/06 09:40:00;;;;;;;;;13.50;12.50;;;;;25.74;44.96;101540.25;5078689;28;46355;-82
2021/09/06 09:42:26;;;;;;;;;16.50;15.50;;;;;25.90;44.82;101567.78;5079030;28;45706;-83
2021/09/06 09:44:54;;;;;;;;;13.25;13.00;;;;;25.90;45.07;101545.44;5078260;28;45616;-81
2021/09/06 09:47:21;;;;;;;;;14.00;14.00;;;;;25.99;44.73;101554.22;5079034;28;45541;-83
2021/09/06 09:49:55;;;;;;;;;14.50;13.00;;;;;25.88;45.23;101529.50;5078001;28;45513;-83
2021/09/06 09:52:22;;;;;;;;;14.00;13.00;;;;;26.07;44.34;101552.28;5078157;28;45951;-83
2021/09/06 09:54:53;;;;;;;;;14.00;12.75;;;;;26.09;44.18;101552.09;5078476;28;45745;-80
2021/09/06 09:57:19;;;;;;;;;12.75;12.00;;;;;26.08;44.28;101543.19;5060906;28;45799;-85
2021/09/06 09:59:44;;;;;;;;;13.50;13.25;;;;;26.11;44.39;101540.16;5079199;28;46923;-85
2021/09/06 10:02:23;;;;;;;;;15.25;13.50;;;;;26.07;44.43;101521.91;5079035;28;46233;-80
2021/09/06 10:04:54;;;;;;;;;13.00;12.25;;;;;26.04;44.30;101506.16;5079372;28;45548;-83
2021/09/06 10:07:25;;;;;;;;;15.25;14.50;;;;;26.22;43.69;101536.13;5079352;28;45841;-85
2021/09/06 10:09:51;;;;;;;;;14.00;13.00;;;;;26.25;44.12;101535.78;5079250;28;46353;-82
2021/09/06 10:12:23;;;;;;;;;17.00;15.50;;;;;26.36;43.70;101547.91;5079313;28;46078;-81
2021/09/06 10:14:51;;;;;;;;;14.75;14.00;;;;;26.41;43.80;101540.09;5077552;28;45605;-83
2021/09/06 10:17:16;;;;;;;;;13.75;13.00;;;;;26.40;43.41;101544.63;5077947;28;45761;-83
2021/09/06 10:19:49;;;;;;;;;14.25;13.00;;;;;26.49;43.76;101543.53;5077585;28;46112;-82
2021/09/06 10:22:27;;;;;;;;;13.25;12.25;;;;;26.54;43.44;101546.47;5077460;28;45631;-84
2021/09/06 10:31:35;;;;;;;;;15.25;14.00;;;;;26.62;43.83;101519.44;5076894;28;46176;-85
2021/09/06 10:34:02;;;;;;;;;16.00;15.00;;;;;26.71;43.56;101523.69;5077371;28;46243;-81
2021/09/06 10:36:28;;;;;;;;;12.00;11.75;;;;;26.78;43.86;101523.72;5077349;28;45698;-85
2021/09/06 10:39:02;;;;;;;;;13.00;13.00;;;;;26.87;43.61;101529.81;5077332;28;45736;-84
2021/09/06 10:41:28;;;;;;;;;16.75;16.00;;;;;26.85;43.02;101529.19;5076936;28;45441;-83
2021/09/06 10:43:58;;;;;;;;;13.75;13.00;;;;;26.96;43.21;101524.16;5076935;28;45673;-85
2021/09/06 10:46:27;;;;;;;;;14.00;13.00;;;;;26.98;43.36;101526.66;5076375;28;45529;-83
2021/09/06 10:48:54;;;;;;;;;16.00;15.00;;;;;26.97;43.04;101509.69;5077696;28;45476;-83
2021/09/06 10:51:29;;;;;;;;;14.75;14.00;;;;;27.09;42.77;101518.06;5080659;28;45819;-84
2021/09/06 10:53:56;;;;;;;;;15.00;12.25;;;;;27.10;42.89;101520.53;5083653;28;46353;-82
2021/09/06 10:56:31;;;;;;;;;17.00;14.75;;;;;27.13;42.65;101520.16;5082853;28;45657;-82
2021/09/06 10:58:57;;;;;;;;;15.00;14.00;;;;;27.18;43.02;101514.19;5080289;28;45575;-83
2021/09/06 11:01:23;;;;;;;;;12.50;12.00;;;;;27.21;42.59;101515.66;5077144;28;46651;-84
2021/09/06 11:03:51;;;;;;;;;12.50;12.00;;;;;27.21;42.46;101507.59;5058254;28;47133;-85
2021/09/06 11:06:19;;;;;;;;;12.75;11.50;;;;;27.25;41.94;101511.53;5077091;28;45618;-81
2021/09/06 11:08:44;;;;;;;;;11.25;11.25;;;;;27.18;41.82;101505.28;5077062;28;45611;-79
2021/09/06 11:11:10;;;;;;;;;13.25;12.50;;;;;27.29;41.65;101520.88;5076865;28;46241;-80
2021/09/06 11:13:40;;;;;;;;;14.75;13.75;;;;;27.31;41.37;101514.28;5076333;28;45722;-79
2021/09/06 11:16:07;;;;;;;;;21.50;20.50;;;;;27.34;41.93;101516.56;5077088;28;45711;-82
2021/09/06 11:18:35;;;;;;;;;12.25;11.00;;;;;27.39;41.87;101513.28;5077284;28;45701;-84
2021/09/06 11:21:01;;;;;;;;;12.00;11.50;;;;;27.41;41.45;101516.63;5057954;28;47471;-81
2021/09/06 11:23:35;;;;;;;;;12.25;12.25;;;;;27.45;41.22;101507.97;5076547;28;46023;-83
2021/09/06 11:26:02;;;;;;;;;15.50;12.75;;;;;27.52;41.36;101511.56;5076999;28;45741;-82
2021/09/06 11:28:27;;;;;;;;;13.50;12.50;;;;;27.53;41.24;101502.44;5078502;28;45475;-85
2021/09/06 11:30:53;;;;;;;;;10.50;10.50;;;;;27.59;40.72;101508.06;5077429;28;46494;-84
2021/09/06 11:33:19;;;;;;;;;13.75;12.75;;;;;27.55;40.57;101500.38;5076568;28;45604;-81
2021/09/06 11:35:46;;;;;;;;;11.00;11.00;;;;;27.60;40.70;101505.16;5076625;28;45666;-80
2021/09/06 11:38:13;;;;;;;;;13.00;12.00;;;;;27.64;40.52;101502.94;5076406;28;45804;-81
2021/09/06 11:40:40;;;;;;;;;11.25;10.50;;;;;27.66;39.97;101503.53;5075749;28;47511;-83
2021/09/06 11:43:07;;;;;;;;;14.00;13.00;;;;;27.61;40.13;101490.69;5076814;28;46068;-81
2021/09/06 11:45:33;;;;;;;;;11.00;11.00;;;;;27.74;40.40;101511.47;5076388;28;45696;-84
2021/09/06 11:48:07;;;;;;;;;13.50;12.25;;;;;27.76;40.47;101510.22;5076647;28;45633;-82
2021/09/06 11:50:38;;;;;;;;;12.25;12.00;;;;;27.77;40.35;101501.13;5076026;28;46447;-82
2021/09/06 11:53:06;;;;;;;;;13.00;12.00;;;;;27.83;40.81;101500.31;5075935;28;47023;-83
2021/09/06 11:55:32;;;;;;;;;14.50;13.50;;;;;27.90;39.91;101506.59;5076075;28;45596;-80
2021/09/06 11:58:13;;;;;;;;;14.00;12.50;;;;;27.94;39.97;101504.31;5075896;28;45619;-82
2021/09/06 12:00:42;;;;;;;;;14.00;13.25;;;;;27.91;40.33;101493.91;5076016;28;46501;-82
2021/09/06 12:03:09;;;;;;;;;14.00;14.00;;;;;28.00;40.06;101503.50;5076618;28;46265;-82
2021/09/06 12:05:47;;;;;;;;;12.50;11.50;;;;;28.00;40.17;101503.50;5077239;28;45763;-84
2021/09/06 12:08:15;;;;;;;;;12.25;10.50;;;;;28.11;39.76;101508.31;5078162;28;45503;-84
2021/09/06 12:10:44;;;;;;;;;10.25;10.25;;;;;28.15;39.68;101509.59;5060688;28;47547;-83